Baker, NV (89311)

4:45 PM PST on February 12, 2016 (GMT -0800)
Hwy 488 | | Change Station
CLOSE
Current Station
Personal Weather Station
Location: Baker, NV
Elevation: 6437 ft
Nearby Weather Stations

Elev 6437 ft 39.01 °N, 114.20 °W | Updated 1 minute ago

Partly Cloudy
Partly Cloudy
40.8 °F
Feels Like 41 °F
N
2.2
Wind Variable Wind from WNW

Today
High -- | Low -- °F
--% Chance of Precip.
Yesterday
High -- | Low -- °F
Precip. -- in
Pressure 30.31 in
Visibility 10.0 miles
Clouds Clear
Windchill 41 °F
Dew Point 32 °F
Humidity 70%
Rainfall 0.00 in
Snow Depth Not available.
6:32 AM 5:10 PM
Waxing Crescent, 25% visible
METAR KELY 122353Z AUTO 16007KT 10SM CLR 03/M02 A3029 RMK AO2 SLP263 T00331017 10067 21017 56008
Pressure 30.31 in
Visibility 10.0 miles
Clouds Clear
Windchill 41 °F
Dew Point 32 °F
Humidity 70%
Rainfall 0.00 in
Snow Depth Not available.
6:32 AM 5:10 PM
Waxing Crescent, 25% visible
METAR KELY 122353Z AUTO 16007KT 10SM CLR 03/M02 A3029 RMK AO2 SLP263 T00331017 10067 21017 56008

10-Day Weather Forecast

Almanac

Astronomy

Feb. 12, 2016 Rise Set
Actual Time
Civil Twilight
Nautical Twilight
Astronomical Twilight
Moon
Length of Visible Light
Length of Day
Tomorrow will be .
, % of the Moon is Illuminated

Today's Extremes

State Highs State Lows

Community

WunderPhotos

Upload Photos

1,892,444 photos uploaded!

WunderBlog® & News

Nearby

Air Quality

  Air Quality AQ Index Pollutant
Not available.

Snow Depth

Station Depth Elevation

Earthquake Activity

City Distance Mag. Time & Date
Minimum magnitude displayed is 2.5.

Coastal Water Temperatures

Place Temperature

Stations

Nearby Weather Stations

Station Location Temp. Windchill Dew Point Humidity Wind Precip. Elev Updated Type
                   

Watches & Warnings

There are currently no watches in effect.